Terminal Aerodrome Forecast
Issued by NWS

Home | Current Version | Previous Version | Text Only | Print | Product List | Glossary On
Versions: 1 2 3 4 5 6 7 8 9 10 11 12 13 14 15 16 17 18
701
FTUS43 KMQT 052320
TAFCMX
TAF
KCMX 052320Z 0600/0624 20006KT P6SM SCT080
     FM060400 25013G18KT P6SM BKN035
     FM060600 27016G24KT 6SM BLSN VCSH BKN030
     FM061200 28013G18KT 1 1/2SM -SHSN OVC022
     FM061800 28009KT 2SM -SHSN OVC011
     FM062000 18006KT 2SM -SHSN OVC009
     FM062300 12005KT 1 1/2SM -SHSN OVC011=

USA.gov is the U.S. government's official web portal to all federal, state and local government web resources and services.